Decoded Metar for SAVC (COMODORO RIVADAVIA in ARGENTINA) (IATA:CRD) | Meteo·Mobile Aviation Weather
aviador You're here:

SAVC Decoded Metar

COMODORO RIVADAVIA in ARGENTINA
Report Time2019-01-19 16:00:00
UTC Time2019-01-19 16:56:29
Flight Rules vfr VFR
Wind290° at 19 Gusting to 30 kt
W.Decomp.*RWY 25: 15.9 kt HW 10.3 kt RCW
W.Rank290° ranks 2
Current wind is above 290° avg. (14.7)
Visibility9999 m
Phenomena:N/A
Clouds:N/A
Expected CloudBase > 13,200 ft AGL from Temp-Dew spread
CeilingNone
Temp34°C (ISA +19)
Dew Point01°C (12% RH)
Heat Index31.5°C
AAT25.3°C
QNH1006 hPa
Density Alt2,674 ft
Elevation151 ft
Report Wrong Elevation
Raw Report
SAVC 191600Z 29019G30KT 250V330 CAVOK 34/01 Q1006=

Extra information for SAVC:More info

Metar Taf Metar & Taf Last 4 Metars F.Rules Stats Wind Profile Meteogram Temp Stats Airport Information Weather charts Add Link Nearby VenuesMetar ALERT Operation Metar Decoded Social comments